sensor_id;sensor_type;location;lat;lon;timestamp;temperature;humidity
23597;DHT22;40226;50.874;4.394;2023-01-24T00:00:35;4.40;99.90
23597;DHT22;40226;50.874;4.394;2023-01-24T00:03:01;4.50;99.90
23597;DHT22;40226;50.874;4.394;2023-01-24T00:05:26;4.40;99.90
23597;DHT22;40226;50.874;4.394;2023-01-24T00:07:52;4.40;99.90
23597;DHT22;40226;50.874;4.394;2023-01-24T00:10:18;4.20;99.90
23597;DHT22;40226;50.874;4.394;2023-01-24T00:12:43;4.10;99.90
23597;DHT22;40226;50.874;4.394;2023-01-24T00:15:09;4.10;99.90
23597;DHT22;40226;50.874;4.394;2023-01-24T00:17:35;4.20;99.90
23597;DHT22;40226;50.874;4.394;2023-01-24T00:20:01;4.30;99.90
23597;DHT22;40226;50.874;4.394;2023-01-24T00:22:27;4.50;99.90
23597;DHT22;40226;50.874;4.394;2023-01-24T00:24:52;4.40;99.90
23597;DHT22;40226;50.874;4.394;2023-01-24T00:27:18;4.30;99.90
23597;DHT22;40226;50.874;4.394;2023-01-24T00:29:43;4.20;99.90
23597;DHT22;40226;50.874;4.394;2023-01-24T00:32:09;4.10;99.90
23597;DHT22;40226;50.874;4.394;2023-01-24T00:34:35;4.10;99.90
23597;DHT22;40226;50.874;4.394;2023-01-24T00:37:01;4.10;99.90
23597;DHT22;40226;50.874;4.394;2023-01-24T00:39:26;4.30;99.90
23597;DHT22;40226;50.874;4.394;2023-01-24T00:41:52;4.40;99.90
23597;DHT22;40226;50.874;4.394;2023-01-24T00:44:17;4.30;99.90
23597;DHT22;40226;50.874;4.394;2023-01-24T00:46:43;4.20;99.90
23597;DHT22;40226;50.874;4.394;2023-01-24T00:49:09;4.20;99.90
23597;DHT22;40226;50.874;4.394;2023-01-24T00:51:34;4.30;99.90
23597;DHT22;40226;50.874;4.394;2023-01-24T00:54:00;4.10;99.90
23597;DHT22;40226;50.874;4.394;2023-01-24T00:56:26;4.10;99.90
23597;DHT22;40226;50.874;4.394;2023-01-24T00:58:51;4.10;99.90
23597;DHT22;40226;50.874;4.394;2023-01-24T01:01:17;4.10;99.90
23597;DHT22;40226;50.874;4.394;2023-01-24T01:03:43;4.20;99.90
23597;DHT22;40226;50.874;4.394;2023-01-24T01:06:15;4.00;99.90
23597;DHT22;40226;50.874;4.394;2023-01-24T01:08:41;4.10;99.90
23597;DHT22;40226;50.874;4.394;2023-01-24T01:11:07;4.10;99.90
23597;DHT22;40226;50.874;4.394;2023-01-24T01:13:33;4.20;99.90
23597;DHT22;40226;50.874;4.394;2023-01-24T01:16:11;4.10;99.90
23597;DHT22;40226;50.874;4.394;2023-01-24T01:18:37;4.20;99.90
23597;DHT22;40226;50.874;4.394;2023-01-24T01:21:04;4.20;99.90
23597;DHT22;40226;50.874;4.394;2023-01-24T01:23:30;4.00;99.90
23597;DHT22;40226;50.874;4.394;2023-01-24T01:26:05;4.20;99.90
23597;DHT22;40226;50.874;4.394;2023-01-24T01:28:31;4.30;99.90
23597;DHT22;40226;50.874;4.394;2023-01-24T01:30:57;4.20;99.90
23597;DHT22;40226;50.874;4.394;2023-01-24T01:33:23;4.30;99.90
23597;DHT22;40226;50.874;4.394;2023-01-24T01:35:50;4.30;99.90
23597;DHT22;40226;50.874;4.394;2023-01-24T01:38:16;4.40;99.90
23597;DHT22;40226;50.874;4.394;2023-01-24T01:40:43;4.30;99.90
23597;DHT22;40226;50.874;4.394;2023-01-24T01:43:18;4.20;99.90
23597;DHT22;40226;50.874;4.394;2023-01-24T01:50:59;4.10;99.90
23597;DHT22;40226;50.874;4.394;2023-01-24T01:53:31;4.10;99.90
23597;DHT22;40226;50.874;4.394;2023-01-24T01:56:10;4.10;99.90
23597;DHT22;40226;50.874;4.394;2023-01-24T01:58:37;4.30;99.90
23597;DHT22;40226;50.874;4.394;2023-01-24T02:01:04;4.20;99.90
23597;DHT22;40226;50.874;4.394;2023-01-24T02:03:36;4.20;99.90
23597;DHT22;40226;50.874;4.394;2023-01-24T02:08:51;4.30;99.90
23597;DHT22;40226;50.874;4.394;2023-01-24T02:11:17;4.20;99.90
23597;DHT22;40226;50.874;4.394;2023-01-24T02:14:02;4.10;99.90
23597;DHT22;40226;50.874;4.394;2023-01-24T02:16:46;4.00;99.90
23597;DHT22;40226;50.874;4.394;2023-01-24T02:19:31;4.00;99.90
23597;DHT22;40226;50.874;4.394;2023-01-24T02:22:07;4.10;99.90
23597;DHT22;40226;50.874;4.394;2023-01-24T02:24:40;4.10;99.90
23597;DHT22;40226;50.874;4.394;2023-01-24T02:27:08;4.10;99.90
23597;DHT22;40226;50.874;4.394;2023-01-24T02:29:34;4.20;99.90
23597;DHT22;40226;50.874;4.394;2023-01-24T02:32:06;4.20;99.90
23597;DHT22;40226;50.874;4.394;2023-01-24T02:34:33;4.10;99.90
23597;DHT22;40226;50.874;4.394;2023-01-24T02:37:01;4.20;99.90
23597;DHT22;40226;50.874;4.394;2023-01-24T02:39:31;4.30;99.90
23597;DHT22;40226;50.874;4.394;2023-01-24T02:42:08;4.30;99.90
23597;DHT22;40226;50.874;4.394;2023-01-24T02:44:42;4.30;99.90
23597;DHT22;40226;50.874;4.394;2023-01-24T02:47:10;4.30;99.90
23597;DHT22;40226;50.874;4.394;2023-01-24T02:49:36;4.20;99.90
23597;DHT22;40226;50.874;4.394;2023-01-24T02:52:01;4.10;99.90
23597;DHT22;40226;50.874;4.394;2023-01-24T02:54:45;4.10;99.90
23597;DHT22;40226;50.874;4.394;2023-01-24T02:57:11;4.30;99.90
23597;DHT22;40226;50.874;4.394;2023-01-24T02:59:55;4.30;99.90
23597;DHT22;40226;50.874;4.394;2023-01-24T03:02:21;4.30;99.90
23597;DHT22;40226;50.874;4.394;2023-01-24T03:04:46;4.50;99.90
23597;DHT22;40226;50.874;4.394;2023-01-24T03:07:12;4.40;99.90
23597;DHT22;40226;50.874;4.394;2023-01-24T03:09:37;4.30;99.90
23597;DHT22;40226;50.874;4.394;2023-01-24T03:12:11;4.40;99.90
23597;DHT22;40226;50.874;4.394;2023-01-24T03:14:55;4.30;99.90
23597;DHT22;40226;50.874;4.394;2023-01-24T03:17:39;4.30;99.90
23597;DHT22;40226;50.874;4.394;2023-01-24T03:20:23;4.10;99.90
23597;DHT22;40226;50.874;4.394;2023-01-24T03:23:07;4.20;99.90
23597;DHT22;40226;50.874;4.394;2023-01-24T03:25:56;4.20;99.90
23597;DHT22;40226;50.874;4.394;2023-01-24T03:28:41;3.90;99.90
23597;DHT22;40226;50.874;4.394;2023-01-24T03:31:25;4.10;99.90
23597;DHT22;40226;50.874;4.394;2023-01-24T03:34:09;4.00;99.90
23597;DHT22;40226;50.874;4.394;2023-01-24T03:36:53;4.00;99.90
23597;DHT22;40226;50.874;4.394;2023-01-24T03:39:19;4.00;99.90
23597;DHT22;40226;50.874;4.394;2023-01-24T03:42:03;3.90;99.90
23597;DHT22;40226;50.874;4.394;2023-01-24T03:44:29;4.10;99.90
23597;DHT22;40226;50.874;4.394;2023-01-24T03:46:54;4.20;99.90
23597;DHT22;40226;50.874;4.394;2023-01-24T03:49:20;4.20;99.90
23597;DHT22;40226;50.874;4.394;2023-01-24T03:52:04;4.40;99.90
23597;DHT22;40226;50.874;4.394;2023-01-24T03:54:48;4.30;99.90
23597;DHT22;40226;50.874;4.394;2023-01-24T03:57:14;4.20;99.90
23597;DHT22;40226;50.874;4.394;2023-01-24T03:59:39;4.20;99.90
23597;DHT22;40226;50.874;4.394;2023-01-24T04:02:05;4.30;99.90
23597;DHT22;40226;50.874;4.394;2023-01-24T04:04:30;4.20;99.90
23597;DHT22;40226;50.874;4.394;2023-01-24T04:07:16;4.10;99.90
23597;DHT22;40226;50.874;4.394;2023-01-24T04:09:41;4.10;99.90
23597;DHT22;40226;50.874;4.394;2023-01-24T04:12:07;4.10;99.90
23597;DHT22;40226;50.874;4.394;2023-01-24T04:14:33;4.10;99.90
23597;DHT22;40226;50.874;4.394;2023-01-24T04:16:58;4.10;99.90
23597;DHT22;40226;50.874;4.394;2023-01-24T04:19:24;4.10;99.90
23597;DHT22;40226;50.874;4.394;2023-01-24T04:21:49;4.20;99.90
23597;DHT22;40226;50.874;4.394;2023-01-24T04:24:15;4.10;99.90
23597;DHT22;40226;50.874;4.394;2023-01-24T04:26:40;4.20;99.90
23597;DHT22;40226;50.874;4.394;2023-01-24T04:29:06;4.30;99.90
23597;DHT22;40226;50.874;4.394;2023-01-24T04:31:31;4.20;99.90
23597;DHT22;40226;50.874;4.394;2023-01-24T04:33:57;4.20;99.90
23597;DHT22;40226;50.874;4.394;2023-01-24T04:36:23;4.20;99.90
23597;DHT22;40226;50.874;4.394;2023-01-24T04:38:48;4.10;99.90
23597;DHT22;40226;50.874;4.394;2023-01-24T04:41:14;4.00;99.90
23597;DHT22;40226;50.874;4.394;2023-01-24T04:43:40;4.00;99.90
23597;DHT22;40226;50.874;4.394;2023-01-24T04:46:06;4.00;99.90
23597;DHT22;40226;50.874;4.394;2023-01-24T04:48:32;3.90;99.90
23597;DHT22;40226;50.874;4.394;2023-01-24T04:51:01;3.80;99.90
23597;DHT22;40226;50.874;4.394;2023-01-24T04:53:27;3.80;99.90
23597;DHT22;40226;50.874;4.394;2023-01-24T04:55:54;3.70;99.90
23597;DHT22;40226;50.874;4.394;2023-01-24T04:58:20;3.60;99.90
23597;DHT22;40226;50.874;4.394;2023-01-24T05:00:47;3.50;99.90
23597;DHT22;40226;50.874;4.394;2023-01-24T05:03:13;3.60;99.90
23597;DHT22;40226;50.874;4.394;2023-01-24T05:05:40;3.80;99.90
23597;DHT22;40226;50.874;4.394;2023-01-24T05:08:05;3.80;99.90
23597;DHT22;40226;50.874;4.394;2023-01-24T05:10:31;3.80;99.90
23597;DHT22;40226;50.874;4.394;2023-01-24T05:12:56;3.90;99.90
23597;DHT22;40226;50.874;4.394;2023-01-24T05:15:22;3.80;99.90
23597;DHT22;40226;50.874;4.394;2023-01-24T05:17:48;3.70;99.90
23597;DHT22;40226;50.874;4.394;2023-01-24T05:20:14;3.60;99.90
23597;DHT22;40226;50.874;4.394;2023-01-24T05:22:40;3.60;99.90
23597;DHT22;40226;50.874;4.394;2023-01-24T05:25:06;3.70;99.90
23597;DHT22;40226;50.874;4.394;2023-01-24T05:27:31;3.80;99.90
23597;DHT22;40226;50.874;4.394;2023-01-24T05:29:57;3.90;99.90
23597;DHT22;40226;50.874;4.394;2023-01-24T05:32:22;3.90;99.90
23597;DHT22;40226;50.874;4.394;2023-01-24T05:34:48;4.00;99.90
23597;DHT22;40226;50.874;4.394;2023-01-24T05:37:14;3.90;99.90
23597;DHT22;40226;50.874;4.394;2023-01-24T05:39:39;3.80;99.90
23597;DHT22;40226;50.874;4.394;2023-01-24T05:42:05;3.80;99.90
23597;DHT22;40226;50.874;4.394;2023-01-24T05:44:30;3.70;99.90
23597;DHT22;40226;50.874;4.394;2023-01-24T05:46:56;3.70;99.90
23597;DHT22;40226;50.874;4.394;2023-01-24T05:49:21;3.70;99.90
23597;DHT22;40226;50.874;4.394;2023-01-24T05:51:47;3.80;99.90
23597;DHT22;40226;50.874;4.394;2023-01-24T05:54:12;4.00;99.90
23597;DHT22;40226;50.874;4.394;2023-01-24T05:56:38;3.90;99.90
23597;DHT22;40226;50.874;4.394;2023-01-24T05:59:04;4.00;99.90
23597;DHT22;40226;50.874;4.394;2023-01-24T06:01:30;3.90;99.90
23597;DHT22;40226;50.874;4.394;2023-01-24T06:03:55;4.00;99.90
23597;DHT22;40226;50.874;4.394;2023-01-24T06:06:22;3.90;99.90
23597;DHT22;40226;50.874;4.394;2023-01-24T06:08:48;4.10;99.90
23597;DHT22;40226;50.874;4.394;2023-01-24T06:11:17;4.20;99.90
23597;DHT22;40226;50.874;4.394;2023-01-24T06:13:43;4.00;99.90
23597;DHT22;40226;50.874;4.394;2023-01-24T06:16:14;3.90;99.90
23597;DHT22;40226;50.874;4.394;2023-01-24T06:18:40;4.00;99.90
23597;DHT22;40226;50.874;4.394;2023-01-24T06:23:38;4.10;99.90
23597;DHT22;40226;50.874;4.394;2023-01-24T06:26:04;4.00;99.90
23597;DHT22;40226;50.874;4.394;2023-01-24T06:28:30;4.20;99.90
23597;DHT22;40226;50.874;4.394;2023-01-24T06:39:30;4.10;99.90
23597;DHT22;40226;50.874;4.394;2023-01-24T06:41:56;4.00;99.90
23597;DHT22;40226;50.874;4.394;2023-01-24T06:44:22;4.00;99.90
23597;DHT22;40226;50.874;4.394;2023-01-24T06:46:48;4.00;99.90
23597;DHT22;40226;50.874;4.394;2023-01-24T06:49:14;3.90;99.90
23597;DHT22;40226;50.874;4.394;2023-01-24T06:51:39;4.00;99.90
23597;DHT22;40226;50.874;4.394;2023-01-24T06:54:05;4.00;99.90
23597;DHT22;40226;50.874;4.394;2023-01-24T06:56:31;3.90;99.90
23597;DHT22;40226;50.874;4.394;2023-01-24T06:58:56;3.80;99.90
23597;DHT22;40226;50.874;4.394;2023-01-24T07:01:22;3.90;99.90
23597;DHT22;40226;50.874;4.394;2023-01-24T07:03:48;4.10;99.90
23597;DHT22;40226;50.874;4.394;2023-01-24T07:06:13;4.10;99.90
23597;DHT22;40226;50.874;4.394;2023-01-24T07:08:39;4.10;99.90
23597;DHT22;40226;50.874;4.394;2023-01-24T07:11:04;3.90;99.90
23597;DHT22;40226;50.874;4.394;2023-01-24T07:13:30;4.10;99.90
23597;DHT22;40226;50.874;4.394;2023-01-24T07:15:59;4.20;99.90
23597;DHT22;40226;50.874;4.394;2023-01-24T07:18:25;4.10;99.90
23597;DHT22;40226;50.874;4.394;2023-01-24T07:20:51;4.10;99.90
23597;DHT22;40226;50.874;4.394;2023-01-24T07:23:23;4.10;99.90
23597;DHT22;40226;50.874;4.394;2023-01-24T07:25:51;4.10;99.90
23597;DHT22;40226;50.874;4.394;2023-01-24T07:28:17;4.30;99.90
23597;DHT22;40226;50.874;4.394;2023-01-24T07:30:43;4.30;99.90
23597;DHT22;40226;50.874;4.394;2023-01-24T07:33:11;4.40;99.90
23597;DHT22;40226;50.874;4.394;2023-01-24T07:35:37;4.40;99.90
23597;DHT22;40226;50.874;4.394;2023-01-24T07:38:03;4.30;99.90
23597;DHT22;40226;50.874;4.394;2023-01-24T07:40:28;4.20;99.90
23597;DHT22;40226;50.874;4.394;2023-01-24T07:42:54;4.20;99.90
23597;DHT22;40226;50.874;4.394;2023-01-24T07:45:19;4.10;99.90
23597;DHT22;40226;50.874;4.394;2023-01-24T07:47:45;4.00;99.90
23597;DHT22;40226;50.874;4.394;2023-01-24T07:50:11;4.00;99.90
23597;DHT22;40226;50.874;4.394;2023-01-24T07:52:37;4.00;99.90
23597;DHT22;40226;50.874;4.394;2023-01-24T07:55:02;3.90;99.90
23597;DHT22;40226;50.874;4.394;2023-01-24T07:57:28;3.90;99.90
23597;DHT22;40226;50.874;4.394;2023-01-24T07:59:54;4.00;99.90
23597;DHT22;40226;50.874;4.394;2023-01-24T08:02:19;3.90;99.90
23597;DHT22;40226;50.874;4.394;2023-01-24T08:04:45;4.00;99.90
23597;DHT22;40226;50.874;4.394;2023-01-24T08:07:10;4.00;99.90
23597;DHT22;40226;50.874;4.394;2023-01-24T08:09:42;3.90;99.90
23597;DHT22;40226;50.874;4.394;2023-01-24T08:12:08;4.00;99.90
23597;DHT22;40226;50.874;4.394;2023-01-24T08:14:33;3.90;99.90
23597;DHT22;40226;50.874;4.394;2023-01-24T08:16:59;3.90;99.90
23597;DHT22;40226;50.874;4.394;2023-01-24T08:19:24;3.90;99.90
23597;DHT22;40226;50.874;4.394;2023-01-24T08:21:50;3.80;99.90
23597;DHT22;40226;50.874;4.394;2023-01-24T08:24:16;4.00;99.90
23597;DHT22;40226;50.874;4.394;2023-01-24T08:26:41;4.10;99.90
23597;DHT22;40226;50.874;4.394;2023-01-24T08:29:07;3.90;99.90
23597;DHT22;40226;50.874;4.394;2023-01-24T08:31:32;4.00;99.90
23597;DHT22;40226;50.874;4.394;2023-01-24T08:33:58;4.10;99.90
23597;DHT22;40226;50.874;4.394;2023-01-24T08:36:24;4.10;99.90
23597;DHT22;40226;50.874;4.394;2023-01-24T08:38:50;4.00;99.90
23597;DHT22;40226;50.874;4.394;2023-01-24T08:41:15;4.00;99.90
23597;DHT22;40226;50.874;4.394;2023-01-24T08:43:41;3.90;99.90
23597;DHT22;40226;50.874;4.394;2023-01-24T08:46:07;4.00;99.90
23597;DHT22;40226;50.874;4.394;2023-01-24T08:48:33;4.10;99.90
23597;DHT22;40226;50.874;4.394;2023-01-24T08:51:02;4.30;99.90
23597;DHT22;40226;50.874;4.394;2023-01-24T08:53:29;4.10;99.90
23597;DHT22;40226;50.874;4.394;2023-01-24T08:55:54;4.10;99.90
23597;DHT22;40226;50.874;4.394;2023-01-24T08:58:20;3.90;99.90
23597;DHT22;40226;50.874;4.394;2023-01-24T09:00:46;3.80;99.90
23597;DHT22;40226;50.874;4.394;2023-01-24T09:03:15;3.80;99.90
23597;DHT22;40226;50.874;4.394;2023-01-24T09:05:41;3.80;99.90
23597;DHT22;40226;50.874;4.394;2023-01-24T09:08:07;3.90;99.90
23597;DHT22;40226;50.874;4.394;2023-01-24T09:10:33;4.00;99.90
23597;DHT22;40226;50.874;4.394;2023-01-24T09:13:00;4.10;99.90
23597;DHT22;40226;50.874;4.394;2023-01-24T09:15:26;3.80;99.90
23597;DHT22;40226;50.874;4.394;2023-01-24T09:17:51;3.70;99.90
23597;DHT22;40226;50.874;4.394;2023-01-24T09:20:17;3.70;99.90
23597;DHT22;40226;50.874;4.394;2023-01-24T09:22:44;3.80;99.90
23597;DHT22;40226;50.874;4.394;2023-01-24T09:25:10;3.90;99.90
23597;DHT22;40226;50.874;4.394;2023-01-24T09:27:36;4.00;99.90
23597;DHT22;40226;50.874;4.394;2023-01-24T09:30:03;3.80;99.90
23597;DHT22;40226;50.874;4.394;2023-01-24T09:32:30;3.90;99.90
23597;DHT22;40226;50.874;4.394;2023-01-24T09:34:55;3.90;99.90
23597;DHT22;40226;50.874;4.394;2023-01-24T09:37:22;3.60;99.90
23597;DHT22;40226;50.874;4.394;2023-01-24T09:39:48;3.70;99.90
23597;DHT22;40226;50.874;4.394;2023-01-24T09:47:54;3.90;99.90
23597;DHT22;40226;50.874;4.394;2023-01-24T09:50:27;3.80;99.90
23597;DHT22;40226;50.874;4.394;2023-01-24T09:52:56;3.80;99.90
23597;DHT22;40226;50.874;4.394;2023-01-24T09:55:28;4.00;99.90
23597;DHT22;40226;50.874;4.394;2023-01-24T09:57:56;4.10;99.90
23597;DHT22;40226;50.874;4.394;2023-01-24T10:00:30;4.20;99.90
23597;DHT22;40226;50.874;4.394;2023-01-24T10:02:58;4.10;99.90
23597;DHT22;40226;50.874;4.394;2023-01-24T10:05:38;4.00;99.90
23597;DHT22;40226;50.874;4.394;2023-01-24T10:08:33;3.90;99.90
23597;DHT22;40226;50.874;4.394;2023-01-24T10:25:03;4.20;99.90
23597;DHT22;40226;50.874;4.394;2023-01-24T10:27:35;4.30;99.90
23597;DHT22;40226;50.874;4.394;2023-01-24T10:30:16;4.30;99.90
23597;DHT22;40226;50.874;4.394;2023-01-24T10:32:44;4.40;99.90
23597;DHT22;40226;50.874;4.394;2023-01-24T10:35:14;4.50;99.90
23597;DHT22;40226;50.874;4.394;2023-01-24T10:37:45;4.70;99.90
23597;DHT22;40226;50.874;4.394;2023-01-24T10:40:15;4.50;99.90
23597;DHT22;40226;50.874;4.394;2023-01-24T10:42:42;4.60;99.90
23597;DHT22;40226;50.874;4.394;2023-01-24T10:50:44;4.70;99.90
23597;DHT22;40226;50.874;4.394;2023-01-24T10:53:26;4.60;99.90
23597;DHT22;40226;50.874;4.394;2023-01-24T10:56:01;4.80;99.90
23597;DHT22;40226;50.874;4.394;2023-01-24T10:58:42;4.70;99.90
23597;DHT22;40226;50.874;4.394;2023-01-24T11:01:17;4.90;99.90
23597;DHT22;40226;50.874;4.394;2023-01-24T11:03:45;4.90;99.90
23597;DHT22;40226;50.874;4.394;2023-01-24T11:06:38;5.00;99.90
23597;DHT22;40226;50.874;4.394;2023-01-24T11:09:11;5.00;99.90
23597;DHT22;40226;50.874;4.394;2023-01-24T11:11:49;5.00;99.90
23597;DHT22;40226;50.874;4.394;2023-01-24T11:14:19;5.00;99.90
23597;DHT22;40226;50.874;4.394;2023-01-24T11:16:51;5.10;99.90
23597;DHT22;40226;50.874;4.394;2023-01-24T11:19:32;5.00;99.90
23597;DHT22;40226;50.874;4.394;2023-01-24T11:22:01;5.20;99.90
23597;DHT22;40226;50.874;4.394;2023-01-24T11:24:28;5.10;99.90
23597;DHT22;40226;50.874;4.394;2023-01-24T11:26:55;5.10;99.90
23597;DHT22;40226;50.874;4.394;2023-01-24T11:29:21;5.10;99.90
23597;DHT22;40226;50.874;4.394;2023-01-24T11:31:55;5.20;99.90
23597;DHT22;40226;50.874;4.394;2023-01-24T11:40:28;5.10;99.90
23597;DHT22;40226;50.874;4.394;2023-01-24T11:45:52;5.20;99.90
23597;DHT22;40226;50.874;4.394;2023-01-24T11:48:28;5.10;99.90
23597;DHT22;40226;50.874;4.394;2023-01-24T11:56:57;5.10;99.90
23597;DHT22;40226;50.874;4.394;2023-01-24T12:05:23;5.40;99.90
23597;DHT22;40226;50.874;4.394;2023-01-24T12:10:50;5.20;99.90
23597;DHT22;40226;50.874;4.394;2023-01-24T12:13:27;5.30;99.90
23597;DHT22;40226;50.874;4.394;2023-01-24T12:16:14;5.20;99.90
23597;DHT22;40226;50.874;4.394;2023-01-24T12:18:53;5.20;99.90
23597;DHT22;40226;50.874;4.394;2023-01-24T12:21:21;4.90;99.90
23597;DHT22;40226;50.874;4.394;2023-01-24T12:24:03;4.70;99.90
23597;DHT22;40226;50.874;4.394;2023-01-24T12:26:34;4.50;99.90
23597;DHT22;40226;50.874;4.394;2023-01-24T12:29:21;4.40;99.90
23597;DHT22;40226;50.874;4.394;2023-01-24T12:31:56;4.20;99.90
23597;DHT22;40226;50.874;4.394;2023-01-24T12:34:50;4.40;99.90
23597;DHT22;40226;50.874;4.394;2023-01-24T12:37:34;4.60;99.90
23597;DHT22;40226;50.874;4.394;2023-01-24T12:40:09;4.70;99.90
23597;DHT22;40226;50.874;4.394;2023-01-24T12:48:33;4.70;99.90
23597;DHT22;40226;50.874;4.394;2023-01-24T12:54:17;4.90;99.90
23597;DHT22;40226;50.874;4.394;2023-01-24T12:59:25;4.80;99.90
23597;DHT22;40226;50.874;4.394;2023-01-24T13:02:16;4.70;99.90
23597;DHT22;40226;50.874;4.394;2023-01-24T13:04:50;4.80;99.90
23597;DHT22;40226;50.874;4.394;2023-01-24T13:07:42;5.00;99.90
23597;DHT22;40226;50.874;4.394;2023-01-24T13:10:20;5.00;99.90
23597;DHT22;40226;50.874;4.394;2023-01-24T13:12:47;4.90;99.90
23597;DHT22;40226;50.874;4.394;2023-01-24T13:15:15;4.70;99.90
23597;DHT22;40226;50.874;4.394;2023-01-24T13:18:04;4.80;99.90
23597;DHT22;40226;50.874;4.394;2023-01-24T13:20:50;4.70;99.90
23597;DHT22;40226;50.874;4.394;2023-01-24T13:26:30;4.90;99.90
23597;DHT22;40226;50.874;4.394;2023-01-24T13:34:15;4.80;99.90
23597;DHT22;40226;50.874;4.394;2023-01-24T13:36:47;4.80;99.90
23597;DHT22;40226;50.874;4.394;2023-01-24T13:42:12;5.10;99.90
23597;DHT22;40226;50.874;4.394;2023-01-24T13:44:43;4.70;99.90
23597;DHT22;40226;50.874;4.394;2023-01-24T13:49:45;4.70;99.90
23597;DHT22;40226;50.874;4.394;2023-01-24T13:54:58;4.60;99.90
23597;DHT22;40226;50.874;4.394;2023-01-24T13:57:31;4.70;99.90
23597;DHT22;40226;50.874;4.394;2023-01-24T14:02:40;4.70;99.90
23597;DHT22;40226;50.874;4.394;2023-01-24T14:08:30;4.70;99.90
23597;DHT22;40226;50.874;4.394;2023-01-24T14:28:09;5.00;99.90
23597;DHT22;40226;50.874;4.394;2023-01-24T14:30:23;5.10;99.90
23597;DHT22;40226;50.874;4.394;2023-01-24T14:32:52;5.10;99.90
23597;DHT22;40226;50.874;4.394;2023-01-24T14:35:51;5.10;99.90
23597;DHT22;40226;50.874;4.394;2023-01-24T14:38:18;5.30;99.90
23597;DHT22;40226;50.874;4.394;2023-01-24T14:40:53;5.30;99.90
23597;DHT22;40226;50.874;4.394;2023-01-24T14:43:24;5.30;99.90
23597;DHT22;40226;50.874;4.394;2023-01-24T14:45:51;5.30;99.90
23597;DHT22;40226;50.874;4.394;2023-01-24T14:48:25;5.10;99.90
23597;DHT22;40226;50.874;4.394;2023-01-24T14:51:05;5.10;99.90
23597;DHT22;40226;50.874;4.394;2023-01-24T14:53:33;5.00;99.90
23597;DHT22;40226;50.874;4.394;2023-01-24T14:56:02;5.10;99.90
23597;DHT22;40226;50.874;4.394;2023-01-24T14:58:31;4.90;99.90
23597;DHT22;40226;50.874;4.394;2023-01-24T15:00:58;4.80;99.90
23597;DHT22;40226;50.874;4.394;2023-01-24T15:03:27;5.00;99.90
23597;DHT22;40226;50.874;4.394;2023-01-24T15:05:56;5.10;99.90
23597;DHT22;40226;50.874;4.394;2023-01-24T15:08:22;5.10;99.90
23597;DHT22;40226;50.874;4.394;2023-01-24T15:11:07;5.20;99.90
23597;DHT22;40226;50.874;4.394;2023-01-24T15:13:35;5.10;99.90
23597;DHT22;40226;50.874;4.394;2023-01-24T15:16:02;5.20;99.90
23597;DHT22;40226;50.874;4.394;2023-01-24T15:18:38;5.20;99.90
23597;DHT22;40226;50.874;4.394;2023-01-24T15:21:05;5.10;99.90
23597;DHT22;40226;50.874;4.394;2023-01-24T15:23:31;5.20;99.90
23597;DHT22;40226;50.874;4.394;2023-01-24T15:25:58;5.30;99.90
23597;DHT22;40226;50.874;4.394;2023-01-24T15:28:43;5.30;99.90
23597;DHT22;40226;50.874;4.394;2023-01-24T15:31:23;5.20;99.90
23597;DHT22;40226;50.874;4.394;2023-01-24T15:33:59;5.00;99.90
23597;DHT22;40226;50.874;4.394;2023-01-24T15:36:27;4.90;99.90
23597;DHT22;40226;50.874;4.394;2023-01-24T15:38:55;4.90;99.90
23597;DHT22;40226;50.874;4.394;2023-01-24T15:41:26;4.80;99.90
23597;DHT22;40226;50.874;4.394;2023-01-24T15:44:13;4.70;99.90
23597;DHT22;40226;50.874;4.394;2023-01-24T15:46:40;4.30;99.90
23597;DHT22;40226;50.874;4.394;2023-01-24T15:52:03;4.30;99.90
23597;DHT22;40226;50.874;4.394;2023-01-24T15:54:31;4.40;99.90
23597;DHT22;40226;50.874;4.394;2023-01-24T15:57:26;4.50;99.90
23597;DHT22;40226;50.874;4.394;2023-01-24T15:59:57;4.60;99.90
23597;DHT22;40226;50.874;4.394;2023-01-24T16:02:23;4.40;99.90
23597;DHT22;40226;50.874;4.394;2023-01-24T16:04:48;4.50;99.90
23597;DHT22;40226;50.874;4.394;2023-01-24T16:07:15;4.60;99.90
23597;DHT22;40226;50.874;4.394;2023-01-24T16:09:44;4.50;99.90
23597;DHT22;40226;50.874;4.394;2023-01-24T16:12:13;4.60;99.90
23597;DHT22;40226;50.874;4.394;2023-01-24T16:14:44;4.40;99.90
23597;DHT22;40226;50.874;4.394;2023-01-24T16:17:10;4.40;99.90
23597;DHT22;40226;50.874;4.394;2023-01-24T16:19:36;4.40;99.90
23597;DHT22;40226;50.874;4.394;2023-01-24T16:22:02;4.40;99.90
23597;DHT22;40226;50.874;4.394;2023-01-24T16:24:27;4.50;99.90
23597;DHT22;40226;50.874;4.394;2023-01-24T16:26:54;4.50;99.90
23597;DHT22;40226;50.874;4.394;2023-01-24T16:29:25;4.50;99.90
23597;DHT22;40226;50.874;4.394;2023-01-24T16:31:52;4.40;99.90
23597;DHT22;40226;50.874;4.394;2023-01-24T16:34:18;4.50;99.90
23597;DHT22;40226;50.874;4.394;2023-01-24T16:36:44;4.40;99.90
23597;DHT22;40226;50.874;4.394;2023-01-24T16:39:18;4.50;99.90
23597;DHT22;40226;50.874;4.394;2023-01-24T16:41:47;4.60;99.90
23597;DHT22;40226;50.874;4.394;2023-01-24T16:44:13;4.60;99.90
23597;DHT22;40226;50.874;4.394;2023-01-24T16:46:39;4.50;99.90
23597;DHT22;40226;50.874;4.394;2023-01-24T16:49:05;4.50;99.90
23597;DHT22;40226;50.874;4.394;2023-01-24T16:51:31;4.50;99.90
23597;DHT22;40226;50.874;4.394;2023-01-24T16:53:57;4.50;99.90
23597;DHT22;40226;50.874;4.394;2023-01-24T16:56:23;4.30;99.90
23597;DHT22;40226;50.874;4.394;2023-01-24T16:58:53;4.30;99.90
23597;DHT22;40226;50.874;4.394;2023-01-24T17:01:19;4.40;99.90
23597;DHT22;40226;50.874;4.394;2023-01-24T17:03:45;4.50;99.90
23597;DHT22;40226;50.874;4.394;2023-01-24T17:06:13;4.60;99.90
23597;DHT22;40226;50.874;4.394;2023-01-24T17:08:39;4.50;99.90
23597;DHT22;40226;50.874;4.394;2023-01-24T17:11:07;4.40;99.90
23597;DHT22;40226;50.874;4.394;2023-01-24T17:13:34;4.50;99.90
23597;DHT22;40226;50.874;4.394;2023-01-24T17:16:08;4.60;99.90
23597;DHT22;40226;50.874;4.394;2023-01-24T17:18:36;4.50;99.90
23597;DHT22;40226;50.874;4.394;2023-01-24T17:21:04;4.50;99.90
23597;DHT22;40226;50.874;4.394;2023-01-24T17:23:33;4.50;99.90
23597;DHT22;40226;50.874;4.394;2023-01-24T17:26:05;4.40;99.90
23597;DHT22;40226;50.874;4.394;2023-01-24T17:28:30;4.40;99.90
23597;DHT22;40226;50.874;4.394;2023-01-24T17:30:56;4.50;99.90
23597;DHT22;40226;50.874;4.394;2023-01-24T17:33:22;4.60;99.90
23597;DHT22;40226;50.874;4.394;2023-01-24T17:35:48;4.60;99.90
23597;DHT22;40226;50.874;4.394;2023-01-24T17:38:13;4.50;99.90
23597;DHT22;40226;50.874;4.394;2023-01-24T17:40:39;4.50;99.90
23597;DHT22;40226;50.874;4.394;2023-01-24T17:43:04;4.50;99.90
23597;DHT22;40226;50.874;4.394;2023-01-24T17:45:30;4.50;99.90
23597;DHT22;40226;50.874;4.394;2023-01-24T17:47:56;4.50;99.90
23597;DHT22;40226;50.874;4.394;2023-01-24T17:50:21;4.60;99.90
23597;DHT22;40226;50.874;4.394;2023-01-24T17:52:48;4.60;99.90
23597;DHT22;40226;50.874;4.394;2023-01-24T17:55:13;4.50;99.90
23597;DHT22;40226;50.874;4.394;2023-01-24T17:57:41;4.40;99.90
23597;DHT22;40226;50.874;4.394;2023-01-24T18:00:08;4.40;99.90